createdAt,value
2023-02-28T00:01:48.744Z,-6.52
2023-02-28T00:04:15.741Z,-6.62
2023-02-28T00:06:43.142Z,-6.53
2023-02-28T00:09:10.141Z,-6.50
2023-02-28T00:11:38.973Z,-6.53
2023-02-28T00:14:05.966Z,-6.55
2023-02-28T00:16:32.969Z,-6.48
2023-02-28T00:18:59.870Z,-6.46
2023-02-28T00:21:27.742Z,-6.44
2023-02-28T00:23:54.788Z,-6.40
2023-02-28T00:26:22.157Z,-6.52
2023-02-28T00:28:50.136Z,-6.70
2023-02-28T00:31:17.128Z,-6.58
2023-02-28T00:33:44.197Z,-6.61
2023-02-28T00:36:12.796Z,-6.51
2023-02-28T00:38:41.167Z,-6.50
2023-02-28T00:41:09.252Z,-6.48
2023-02-28T00:43:38.239Z,-6.44
2023-02-28T00:46:09.551Z,-6.50
2023-02-28T00:48:37.918Z,-6.55
2023-02-28T00:51:05.183Z,-6.57
2023-02-28T00:53:33.660Z,-6.62
2023-02-28T00:56:01.195Z,-6.60
2023-02-28T00:58:36.064Z,-6.72
2023-02-28T01:01:08.456Z,-6.51
2023-02-28T01:03:36.015Z,-6.64
2023-02-28T01:06:02.921Z,-6.59
2023-02-28T01:08:29.839Z,-6.52
2023-02-28T01:10:56.966Z,-6.73
2023-02-28T01:13:24.662Z,-6.68
2023-02-28T01:16:04.042Z,-6.59
2023-02-28T01:18:35.537Z,-6.70
2023-02-28T01:21:07.429Z,-6.64
2023-02-28T01:23:34.685Z,-6.71
2023-02-28T01:26:22.748Z,-6.90
2023-02-28T01:28:51.312Z,-6.81
2023-02-28T01:31:20.800Z,-6.79
2023-02-28T01:33:52.004Z,-6.99
2023-02-28T01:36:22.827Z,-6.91
2023-02-28T01:38:50.531Z,-6.89
2023-02-28T01:41:21.950Z,-7.00
2023-02-28T01:43:48.748Z,-6.91
2023-02-28T01:46:16.614Z,-7.11
2023-02-28T01:48:48.141Z,-7.05
2023-02-28T01:51:39.696Z,-7.07
2023-02-28T01:54:17.045Z,-7.13
2023-02-28T01:56:53.248Z,-7.10
2023-02-28T01:59:28.002Z,-7.17
2023-02-28T02:01:56.321Z,-7.14
2023-02-28T02:04:27.225Z,-7.23
2023-02-28T02:06:54.149Z,-7.25
2023-02-28T02:09:21.098Z,-7.24
2023-02-28T02:11:48.548Z,-7.24
2023-02-28T02:15:02.631Z,-7.34
2023-02-28T02:17:50.049Z,-7.38
2023-02-28T02:20:48.464Z,-7.34
2023-02-28T02:23:36.775Z,-7.35
2023-02-28T02:26:20.840Z,-7.29
2023-02-28T02:29:26.117Z,-7.30
2023-02-28T02:32:22.331Z,-7.33
2023-02-28T02:34:52.317Z,-7.49
2023-02-28T02:37:41.899Z,-7.46
2023-02-28T02:40:17.596Z,-7.43
2023-02-28T02:42:47.330Z,-7.39
2023-02-28T02:45:22.656Z,-7.35
2023-02-28T02:47:50.951Z,-7.37
2023-02-28T02:50:26.446Z,-7.44
2023-02-28T02:53:05.928Z,-7.41
2023-02-28T02:55:40.589Z,-7.41
2023-02-28T02:58:12.616Z,-7.44
2023-02-28T03:00:47.739Z,-7.49
2023-02-28T03:03:18.733Z,-7.49
2023-02-28T03:05:52.437Z,-7.50
2023-02-28T03:08:19.435Z,-7.44
2023-02-28T03:10:55.777Z,-7.52
2023-02-28T03:13:37.944Z,-7.52
2023-02-28T03:16:30.264Z,-7.52
2023-02-28T03:19:09.240Z,-7.51
2023-02-28T03:21:50.163Z,-7.52
2023-02-28T03:24:32.371Z,-7.55
2023-02-28T03:27:12.754Z,-7.61
2023-02-28T03:29:47.474Z,-7.55
2023-02-28T03:32:34.629Z,-7.52
2023-02-28T03:35:13.099Z,-7.61
2023-02-28T03:37:44.064Z,-7.57
2023-02-28T03:40:22.099Z,-7.54
2023-02-28T03:42:59.235Z,-7.66
2023-02-28T03:45:34.906Z,-7.59
2023-02-28T03:48:10.210Z,-7.59
2023-02-28T03:50:41.166Z,-7.58
2023-02-28T03:53:12.482Z,-7.67
2023-02-28T03:55:46.443Z,-7.54
2023-02-28T03:58:32.873Z,-7.52
2023-02-28T04:01:14.073Z,-7.52
2023-02-28T04:03:41.127Z,-7.49
2023-02-28T04:06:25.508Z,-7.54
2023-02-28T04:08:59.682Z,-7.54
2023-02-28T04:11:32.357Z,-7.51
2023-02-28T04:13:59.284Z,-7.51
2023-02-28T04:16:34.981Z,-7.51
2023-02-28T04:19:06.004Z,-7.50
2023-02-28T04:21:34.308Z,-7.48
2023-02-28T04:24:01.853Z,-7.47
2023-02-28T04:26:37.124Z,-7.40
2023-02-28T04:29:06.680Z,-7.42
2023-02-28T04:31:33.969Z,-7.30
2023-02-28T04:34:01.337Z,-7.27
2023-02-28T04:36:28.572Z,-7.23
2023-02-28T04:38:55.692Z,-7.27
2023-02-28T04:41:23.817Z,-7.18
2023-02-28T04:43:53.818Z,-7.08
2023-02-28T04:46:21.080Z,-7.11
2023-02-28T04:48:48.282Z,-7.08
2023-02-28T04:51:18.316Z,-7.03
2023-02-28T04:53:45.545Z,-7.04
2023-02-28T04:56:14.220Z,-7.09
2023-02-28T04:58:41.188Z,-7.06
2023-02-28T05:01:19.493Z,-6.96
2023-02-28T05:03:46.610Z,-6.89
2023-02-28T05:06:14.804Z,-6.93
2023-02-28T05:08:42.500Z,-6.79
2023-02-28T05:11:16.997Z,-6.65
2023-02-28T05:13:44.318Z,-6.46
2023-02-28T05:16:11.595Z,-6.39
2023-02-28T05:18:39.382Z,-6.31
2023-02-28T05:21:06.502Z,-6.23
2023-02-28T05:23:36.103Z,-6.25
2023-02-28T05:26:03.095Z,-6.23
2023-02-28T05:28:30.096Z,-6.20
2023-02-28T05:30:57.053Z,-6.16
2023-02-28T05:33:24.102Z,-6.13
2023-02-28T05:35:51.102Z,-6.19
2023-02-28T05:38:18.954Z,-6.07
2023-02-28T05:40:45.831Z,-6.05
2023-02-28T05:43:13.201Z,-6.13
2023-02-28T05:45:40.234Z,-5.99
2023-02-28T05:48:07.962Z,-6.05
2023-02-28T05:50:34.915Z,-6.02
2023-02-28T05:53:03.048Z,-5.96
2023-02-28T05:55:30.332Z,-5.79
2023-02-28T05:57:57.513Z,-5.67
2023-02-28T06:00:24.653Z,-5.61
2023-02-28T06:02:52.735Z,-5.46
2023-02-28T06:05:20.102Z,-5.46
2023-02-28T06:07:47.218Z,-5.36
2023-02-28T06:10:15.002Z,-5.29
2023-02-28T06:12:45.142Z,-5.02
2023-02-28T06:15:16.419Z,-5.01
2023-02-28T06:17:45.162Z,-4.35
2023-02-28T06:20:15.948Z,-3.74
2023-02-28T06:22:43.547Z,-3.24
2023-02-28T06:25:10.827Z,-2.91
2023-02-28T06:27:46.001Z,-2.41
2023-02-28T06:30:17.931Z,-2.02
2023-02-28T06:32:44.970Z,-1.90
2023-02-28T06:35:12.028Z,-1.91
2023-02-28T06:37:41.684Z,-1.67
2023-02-28T06:40:09.851Z,-1.83
2023-02-28T06:42:36.926Z,-2.10
2023-02-28T06:45:10.473Z,-1.94
2023-02-28T06:47:39.882Z,-2.23
2023-02-28T06:50:08.274Z,-2.57
2023-02-28T06:52:39.696Z,-2.42
2023-02-28T06:55:08.997Z,-1.94
2023-02-28T06:57:36.898Z,-1.72
2023-02-28T07:00:09.447Z,-1.60
2023-02-28T07:02:37.363Z,-1.93
2023-02-28T07:05:06.140Z,-1.88
2023-02-28T07:07:33.673Z,-1.76
2023-02-28T07:10:00.751Z,-1.85
2023-02-28T07:12:27.813Z,-1.97
2023-02-28T07:14:56.947Z,-2.06
2023-02-28T07:17:24.084Z,-1.97
2023-02-28T07:19:51.168Z,-2.06
2023-02-28T07:22:18.297Z,-2.31
2023-02-28T07:24:45.177Z,-2.13
2023-02-28T07:27:14.640Z,-2.17
2023-02-28T07:29:42.719Z,-1.93
2023-02-28T07:32:09.728Z,-2.05
2023-02-28T07:34:36.842Z,-2.03
2023-02-28T07:37:04.945Z,-1.81
2023-02-28T07:39:31.931Z,-1.61
2023-02-28T07:41:59.368Z,-1.50
2023-02-28T07:44:27.678Z,-1.66
2023-02-28T07:46:54.671Z,-1.69
2023-02-28T07:49:21.635Z,-1.36
2023-02-28T07:51:48.616Z,-1.13
2023-02-28T07:54:15.622Z,-0.89
2023-02-28T07:56:42.570Z,-0.74
2023-02-28T07:59:10.419Z,-0.67
2023-02-28T08:01:37.447Z,-1.01
2023-02-28T08:04:04.640Z,-0.76
2023-02-28T08:06:31.663Z,-0.92
2023-02-28T08:08:58.607Z,-1.24
2023-02-28T08:11:25.695Z,-1.13
2023-02-28T08:13:52.651Z,-1.27
2023-02-28T08:16:23.359Z,-1.44
2023-02-28T08:18:54.146Z,-1.33
2023-02-28T08:21:22.171Z,-1.06
2023-02-28T08:23:50.857Z,-0.84
2023-02-28T08:26:19.344Z,-0.73
2023-02-28T08:28:46.611Z,-0.93
2023-02-28T08:31:16.266Z,-0.68
2023-02-28T08:33:45.650Z,-0.75
2023-02-28T08:36:13.123Z,-0.74
2023-02-28T08:38:40.078Z,-0.73
2023-02-28T08:41:10.014Z,-0.86
2023-02-28T08:43:37.884Z,-0.63
2023-02-28T08:46:05.358Z,-0.60
2023-02-28T08:48:34.030Z,-0.74
2023-02-28T08:51:08.433Z,-0.90
2023-02-28T08:53:39.524Z,-0.95
2023-02-28T08:56:09.101Z,-0.81
2023-02-28T08:58:36.594Z,-1.10
2023-02-28T09:01:15.932Z,-1.04
2023-02-28T09:03:44.323Z,-0.95
2023-02-28T09:06:12.591Z,-1.04
2023-02-28T09:08:40.397Z,-1.05
2023-02-28T09:11:07.896Z,-1.07
2023-02-28T09:13:35.073Z,-1.01
2023-02-28T09:16:04.389Z,-1.18
2023-02-28T09:18:31.486Z,-1.13
2023-02-28T09:20:58.899Z,-1.11
2023-02-28T09:23:26.148Z,-0.97
2023-02-28T09:25:55.729Z,-0.83
2023-02-28T09:28:23.800Z,-0.75
2023-02-28T09:30:52.902Z,-0.97
2023-02-28T09:33:22.160Z,-0.92
2023-02-28T09:35:52.397Z,-0.88
2023-02-28T09:38:19.521Z,-1.08
2023-02-28T09:40:59.181Z,-1.30
2023-02-28T09:43:32.927Z,-1.31
2023-02-28T09:46:20.969Z,-1.31
2023-02-28T09:48:50.628Z,-1.18
2023-02-28T09:51:34.947Z,-1.07
2023-02-28T09:54:02.739Z,-1.17
2023-02-28T09:56:37.755Z,-1.11
2023-02-28T09:59:11.164Z,-1.11
2023-02-28T10:01:58.316Z,-1.11
2023-02-28T10:05:06.430Z,-1.13
2023-02-28T10:07:49.830Z,-1.00
2023-02-28T10:10:44.190Z,-0.96
2023-02-28T10:13:35.157Z,-1.03
2023-02-28T10:16:31.451Z,-1.38
2023-02-28T10:19:04.792Z,-0.98
2023-02-28T10:21:35.502Z,-0.94
2023-02-28T10:24:30.228Z,-0.99
2023-02-28T10:27:15.203Z,-1.23
2023-02-28T10:29:47.855Z,-1.12
2023-02-28T10:32:19.247Z,-1.09
2023-02-28T10:35:00.163Z,-1.14
2023-02-28T10:37:28.497Z,-1.11
2023-02-28T10:39:55.483Z,-1.05
2023-02-28T10:42:27.966Z,-0.80
2023-02-28T10:45:21.865Z,-1.06
2023-02-28T10:47:56.568Z,-1.01
2023-02-28T10:50:35.860Z,-1.07
2023-02-28T10:53:15.933Z,-1.22
2023-02-28T10:55:43.245Z,-1.13
2023-02-28T10:58:24.550Z,-0.91
2023-02-28T11:00:52.420Z,-0.95
2023-02-28T11:03:41.165Z,-0.89
2023-02-28T11:06:16.295Z,-1.06
2023-02-28T11:09:05.292Z,-0.95
2023-02-28T11:11:44.325Z,-1.04
2023-02-28T11:14:27.179Z,-1.01
2023-02-28T11:17:03.467Z,-0.98
2023-02-28T11:19:39.057Z,-1.18
2023-02-28T11:22:07.368Z,-1.20
2023-02-28T11:24:56.210Z,-1.20
2023-02-28T11:27:31.952Z,-1.13
2023-02-28T11:30:00.572Z,-1.12
2023-02-28T11:32:30.112Z,-0.99
2023-02-28T11:35:18.034Z,-1.05
2023-02-28T11:37:47.020Z,-1.15
2023-02-28T11:40:16.826Z,-1.14
2023-02-28T11:43:11.049Z,-0.89
2023-02-28T11:46:13.533Z,-0.85
2023-02-28T11:49:01.596Z,-0.85
2023-02-28T11:51:48.136Z,-0.88
2023-02-28T11:54:45.107Z,-0.84
2023-02-28T11:57:37.842Z,-0.99
2023-02-28T12:00:26.831Z,-0.90
2023-02-28T12:03:05.967Z,-1.03
2023-02-28T12:05:45.020Z,-1.00
2023-02-28T12:08:33.139Z,-0.94
2023-02-28T12:11:15.541Z,-0.96
2023-02-28T12:14:03.931Z,-1.00
2023-02-28T12:16:52.134Z,-1.10
2023-02-28T12:19:31.072Z,-0.99
2023-02-28T12:22:14.145Z,-0.90
2023-02-28T12:24:56.161Z,-0.86
2023-02-28T12:27:26.690Z,-0.86
2023-02-28T12:30:08.288Z,-0.88
2023-02-28T12:32:40.330Z,-1.04
2023-02-28T12:35:10.377Z,-1.02
2023-02-28T12:37:44.116Z,-1.07
2023-02-28T12:40:15.222Z,-1.04
2023-02-28T12:42:52.833Z,-1.00
2023-02-28T12:45:24.591Z,-0.94
2023-02-28T12:48:01.624Z,-0.84
2023-02-28T12:50:31.265Z,-0.92
2023-02-28T12:52:58.294Z,-1.05
2023-02-28T12:55:47.753Z,-1.13
2023-02-28T12:58:36.796Z,-1.15
2023-02-28T13:01:29.208Z,-1.19
2023-02-28T13:04:08.679Z,-1.11
2023-02-28T13:06:56.891Z,-1.14
2023-02-28T13:09:24.265Z,-1.28
2023-02-28T13:11:55.572Z,-1.15
2023-02-28T13:14:37.716Z,-1.08
2023-02-28T13:17:13.527Z,-1.20
2023-02-28T13:19:45.255Z,-1.10
2023-02-28T13:22:40.445Z,-1.06
2023-02-28T13:25:25.967Z,-1.12
2023-02-28T13:28:02.013Z,-1.10
2023-02-28T13:30:55.615Z,-1.17
2023-02-28T13:33:28.778Z,-1.15
2023-02-28T13:36:10.141Z,-1.06
2023-02-28T13:38:40.215Z,-1.15
2023-02-28T13:41:30.266Z,-1.25
2023-02-28T13:44:09.809Z,-1.20
2023-02-28T13:46:57.025Z,-1.05
2023-02-28T13:49:24.114Z,-1.05
2023-02-28T13:51:53.635Z,-0.95
2023-02-28T13:55:22.033Z,-1.11
2023-02-28T13:58:08.765Z,-0.97
2023-02-28T14:00:41.136Z,-1.12
2023-02-28T14:03:35.314Z,-0.99
2023-02-28T14:06:24.618Z,-0.98
2023-02-28T14:09:19.980Z,-1.01
2023-02-28T14:11:47.912Z,-1.01
2023-02-28T14:14:36.288Z,-1.01
2023-02-28T14:17:06.164Z,-0.95
2023-02-28T14:19:35.310Z,-0.94
2023-02-28T14:22:11.078Z,-0.84
2023-02-28T14:24:59.974Z,-0.92
2023-02-28T14:27:39.520Z,-0.91
2023-02-28T14:30:24.765Z,-1.07
2023-02-28T14:33:25.096Z,-0.95
2023-02-28T14:36:01.124Z,-0.95
2023-02-28T14:38:36.419Z,-0.99
2023-02-28T14:41:08.015Z,-1.05
2023-02-28T14:43:34.970Z,-1.00
2023-02-28T14:46:07.399Z,-0.89
2023-02-28T14:48:36.103Z,-0.96
2023-02-28T14:51:03.098Z,-1.00
2023-02-28T14:53:36.330Z,-0.97
2023-02-28T14:56:04.028Z,-0.92
2023-02-28T14:58:51.488Z,-1.05
2023-02-28T15:01:23.232Z,-1.01
2023-02-28T15:03:59.253Z,-0.98
2023-02-28T15:06:26.819Z,-0.97
2023-02-28T15:09:12.699Z,-0.94
2023-02-28T15:11:41.259Z,-0.88
2023-02-28T15:14:14.455Z,-0.85
2023-02-28T15:16:44.397Z,-0.83
2023-02-28T15:19:43.326Z,-0.74
2023-02-28T15:22:19.050Z,-0.75
2023-02-28T15:24:50.554Z,-0.77
2023-02-28T15:27:22.281Z,-0.78
2023-02-28T15:29:57.322Z,-0.72
2023-02-28T15:32:33.837Z,-0.69
2023-02-28T15:35:20.802Z,-0.71
2023-02-28T15:38:02.182Z,-0.73
2023-02-28T15:40:29.215Z,-0.68
2023-02-28T15:43:16.705Z,-0.60
2023-02-28T15:45:50.131Z,-0.53
2023-02-28T15:48:23.499Z,-0.58
2023-02-28T15:51:01.922Z,-0.50
2023-02-28T15:53:36.929Z,-0.51
2023-02-28T15:56:23.425Z,-0.39
2023-02-28T15:58:50.751Z,-0.42
2023-02-28T16:01:24.977Z,-0.53
2023-02-28T16:03:55.523Z,-0.40
2023-02-28T16:07:00.789Z,-0.37
2023-02-28T16:09:28.537Z,-0.38
2023-02-28T16:11:58.237Z,-0.28
2023-02-28T16:14:28.655Z,-0.31
2023-02-28T16:16:58.490Z,-0.34
2023-02-28T16:19:25.791Z,-0.33
2023-02-28T16:21:52.672Z,-0.35
2023-02-28T16:24:19.622Z,-0.40
2023-02-28T16:26:49.435Z,-0.51
2023-02-28T16:29:32.407Z,-0.28
2023-02-28T16:32:00.949Z,-0.27
2023-02-28T16:34:28.314Z,-0.23
2023-02-28T16:36:55.434Z,-0.16
2023-02-28T16:39:22.384Z,-0.21
2023-02-28T16:41:51.407Z,-0.26
2023-02-28T16:44:25.847Z,-0.23
2023-02-28T16:46:52.789Z,-0.24
2023-02-28T16:49:19.687Z,-0.18
2023-02-28T16:51:46.578Z,-0.09
2023-02-28T16:54:13.653Z,-0.13
2023-02-28T16:56:46.502Z,-0.14
2023-02-28T16:59:14.723Z,-0.10
2023-02-28T17:01:41.896Z,-0.07
2023-02-28T17:04:11.887Z,-0.08
2023-02-28T17:06:39.149Z,-0.03
2023-02-28T17:09:06.064Z,0.04
2023-02-28T17:11:33.831Z,0.05
2023-02-28T17:14:00.787Z,0.02
2023-02-28T17:16:33.643Z,0.07
2023-02-28T17:19:06.473Z,0.02
2023-02-28T17:21:34.555Z,-0.11
2023-02-28T17:24:01.684Z,-0.06
2023-02-28T17:26:31.507Z,-0.11
2023-02-28T17:28:58.946Z,-0.13
2023-02-28T17:31:27.760Z,-0.15
2023-02-28T17:33:56.246Z,-0.14
2023-02-28T17:36:30.280Z,-0.17
2023-02-28T17:38:59.575Z,-0.23
2023-02-28T17:41:27.695Z,-0.20
2023-02-28T17:43:55.163Z,-0.20
2023-02-28T17:46:24.735Z,-0.19
2023-02-28T17:48:54.097Z,-0.23
2023-02-28T17:51:22.927Z,-0.21
2023-02-28T17:53:50.230Z,-0.23
2023-02-28T17:56:25.388Z,-0.15
2023-02-28T17:58:54.107Z,-0.12
2023-02-28T18:01:21.734Z,-0.08
2023-02-28T18:03:49.263Z,-0.06
2023-02-28T18:06:21.143Z,-0.18
2023-02-28T18:08:49.020Z,-0.58
2023-02-28T18:11:18.896Z,-0.82
2023-02-28T18:13:47.556Z,-0.92
2023-02-28T18:16:15.084Z,-1.04
2023-02-28T18:18:43.295Z,-1.11
2023-02-28T18:21:12.354Z,-1.23
2023-02-28T18:23:47.758Z,-1.28
2023-02-28T18:26:16.643Z,-1.35
2023-02-28T18:28:44.755Z,-1.37
2023-02-28T18:31:18.350Z,-1.43
2023-02-28T18:33:49.448Z,-1.40
2023-02-28T18:36:16.938Z,-1.38
2023-02-28T18:38:44.291Z,-1.41
2023-02-28T18:41:11.877Z,-1.40
2023-02-28T18:43:39.537Z,-1.34
2023-02-28T18:46:09.720Z,-1.33
2023-02-28T18:48:37.240Z,-1.34
2023-02-28T18:51:25.606Z,-1.27
2023-02-28T18:53:53.430Z,-1.28
2023-02-28T18:56:26.053Z,-1.24
2023-02-28T18:58:53.636Z,-1.23
2023-02-28T19:01:31.651Z,-1.17
2023-02-28T19:04:03.663Z,-1.14
2023-02-28T19:06:33.014Z,-1.19
2023-02-28T19:09:02.526Z,-1.11
2023-02-28T19:11:30.172Z,-1.07
2023-02-28T19:13:57.520Z,-1.02
2023-02-28T19:16:25.501Z,-1.04
2023-02-28T19:18:52.469Z,-0.97
2023-02-28T19:21:21.930Z,-0.98
2023-02-28T19:23:49.288Z,-1.03
2023-02-28T19:26:19.946Z,-0.97
2023-02-28T19:28:47.200Z,-0.92
2023-02-28T19:31:17.765Z,-0.91
2023-02-28T19:33:45.239Z,-0.91
2023-02-28T19:36:13.038Z,-0.95
2023-02-28T19:38:41.043Z,-1.03
2023-02-28T19:41:11.015Z,-0.97
2023-02-28T19:43:38.229Z,-1.07
2023-02-28T19:46:06.725Z,-1.09
2023-02-28T19:48:33.778Z,-1.12
2023-02-28T19:51:03.510Z,-1.12
2023-02-28T19:53:31.661Z,-1.11
2023-02-28T19:56:00.559Z,-1.15
2023-02-28T19:58:28.180Z,-1.20
2023-02-28T20:00:55.378Z,-1.29
2023-02-28T20:03:23.296Z,-1.21
2023-02-28T20:06:03.024Z,-1.23
2023-02-28T20:08:30.235Z,-1.37
2023-02-28T20:11:12.629Z,-1.51
2023-02-28T20:13:39.717Z,-1.47
2023-02-28T20:16:10.043Z,-1.50
2023-02-28T20:18:38.661Z,-1.65
2023-02-28T20:21:08.595Z,-1.71
2023-02-28T20:23:35.660Z,-1.82
2023-02-28T20:26:03.066Z,-1.91
2023-02-28T20:28:30.308Z,-2.09
2023-02-28T20:30:57.417Z,-2.17
2023-02-28T20:33:24.590Z,-2.23
2023-02-28T20:35:58.973Z,-2.33
2023-02-28T20:38:26.111Z,-2.35
2023-02-28T20:40:58.471Z,-2.40
2023-02-28T20:43:26.421Z,-2.50
2023-02-28T20:45:54.977Z,-2.62
2023-02-28T20:48:22.441Z,-2.69
2023-02-28T20:50:54.822Z,-2.72
2023-02-28T20:53:24.715Z,-2.73
2023-02-28T20:55:58.463Z,-2.77
2023-02-28T20:58:29.265Z,-2.84
2023-02-28T21:01:03.021Z,-2.87
2023-02-28T21:03:30.382Z,-2.97
2023-02-28T21:06:02.250Z,-2.98
2023-02-28T21:08:29.965Z,-3.00
2023-02-28T21:10:57.193Z,-3.05
2023-02-28T21:13:24.312Z,-3.11
2023-02-28T21:15:51.374Z,-3.14
2023-02-28T21:18:18.353Z,-3.16
2023-02-28T21:20:45.324Z,-3.20
2023-02-28T21:23:12.438Z,-3.27
2023-02-28T21:25:39.503Z,-3.30
2023-02-28T21:28:06.588Z,-3.29
2023-02-28T21:30:33.669Z,-3.35
2023-02-28T21:33:00.629Z,-3.34
2023-02-28T21:35:27.748Z,-3.36
2023-02-28T21:37:54.896Z,-3.40
2023-02-28T21:40:21.891Z,-3.42
2023-02-28T21:42:48.809Z,-3.46
2023-02-28T21:45:15.894Z,-3.53
2023-02-28T21:47:42.923Z,-3.56
2023-02-28T21:50:10.775Z,-3.59
2023-02-28T21:52:37.799Z,-3.66
2023-02-28T21:55:05.084Z,-3.61
2023-02-28T21:57:32.264Z,-3.70
2023-02-28T21:59:59.513Z,-3.71
2023-02-28T22:02:27.239Z,-3.73
2023-02-28T22:04:55.332Z,-3.73
2023-02-28T22:07:22.251Z,-3.76
2023-02-28T22:09:49.244Z,-3.78
2023-02-28T22:12:16.203Z,-3.79
2023-02-28T22:14:45.393Z,-3.84
2023-02-28T22:17:12.240Z,-3.84
2023-02-28T22:19:39.208Z,-3.85
2023-02-28T22:22:06.122Z,-3.91
2023-02-28T22:24:33.244Z,-3.95
2023-02-28T22:27:00.144Z,-3.93
2023-02-28T22:29:27.192Z,-3.93
2023-02-28T22:31:54.102Z,-3.96
2023-02-28T22:34:21.305Z,-4.02
2023-02-28T22:36:48.182Z,-4.04
2023-02-28T22:39:15.228Z,-4.05
2023-02-28T22:41:42.284Z,-4.09
2023-02-28T22:44:09.329Z,-4.10
2023-02-28T22:46:39.000Z,-4.12
2023-02-28T22:49:07.552Z,-4.15
2023-02-28T22:51:35.088Z,-4.17
2023-02-28T22:54:02.345Z,-4.21
2023-02-28T22:56:30.850Z,-4.21
2023-02-28T22:59:01.071Z,-4.26
2023-02-28T23:01:31.710Z,-4.29
2023-02-28T23:03:59.747Z,-4.32
2023-02-28T23:06:33.175Z,-4.33
2023-02-28T23:09:04.777Z,-4.40
2023-02-28T23:11:34.885Z,-4.41
2023-02-28T23:14:02.137Z,-4.45
2023-02-28T23:16:33.393Z,-4.47
2023-02-28T23:19:04.293Z,-4.49
2023-02-28T23:21:31.614Z,-4.53
2023-02-28T23:24:00.955Z,-4.57
2023-02-28T23:26:28.093Z,-4.57
2023-02-28T23:28:55.446Z,-4.59
2023-02-28T23:31:22.529Z,-4.64
2023-02-28T23:33:49.941Z,-4.64
2023-02-28T23:36:17.483Z,-4.63
2023-02-28T23:38:48.063Z,-4.63
2023-02-28T23:41:15.365Z,-4.65
2023-02-28T23:43:42.818Z,-4.69
2023-02-28T23:46:11.827Z,-4.73
2023-02-28T23:48:40.060Z,-4.78
2023-02-28T23:51:14.757Z,-4.80
2023-02-28T23:53:44.867Z,-4.76
2023-02-28T23:56:14.914Z,-4.80
2023-02-28T23:58:43.065Z,-4.80
